sensor_id;sensor_type;location;lat;lon;timestamp;temperature;humidity
34147;DHT22;20423;49.448;9.056;2022-12-18T00:02:01;-6.50;99.90
34147;DHT22;20423;49.448;9.056;2022-12-18T00:04:27;-6.60;99.90
34147;DHT22;20423;49.448;9.056;2022-12-18T00:07:15;-6.60;99.90
34147;DHT22;20423;49.448;9.056;2022-12-18T00:09:41;-6.80;99.90
34147;DHT22;20423;49.448;9.056;2022-12-18T00:12:07;-6.80;99.90
34147;DHT22;20423;49.448;9.056;2022-12-18T00:14:32;-6.80;99.90
34147;DHT22;20423;49.448;9.056;2022-12-18T00:16:58;-6.60;99.90
34147;DHT22;20423;49.448;9.056;2022-12-18T00:19:26;-6.60;99.90
34147;DHT22;20423;49.448;9.056;2022-12-18T00:21:52;-6.70;99.90
34147;DHT22;20423;49.448;9.056;2022-12-18T00:24:17;-6.50;99.90
34147;DHT22;20423;49.448;9.056;2022-12-18T00:26:44;-6.60;99.90
34147;DHT22;20423;49.448;9.056;2022-12-18T00:29:12;-6.60;99.90
34147;DHT22;20423;49.448;9.056;2022-12-18T00:31:39;-6.60;99.90
34147;DHT22;20423;49.448;9.056;2022-12-18T00:34:05;-6.50;99.90
34147;DHT22;20423;49.448;9.056;2022-12-18T00:36:33;-6.50;99.90
34147;DHT22;20423;49.448;9.056;2022-12-18T00:39:01;-6.50;99.90
34147;DHT22;20423;49.448;9.056;2022-12-18T00:41:27;-6.40;99.90
34147;DHT22;20423;49.448;9.056;2022-12-18T00:44:14;-6.40;99.90
34147;DHT22;20423;49.448;9.056;2022-12-18T00:46:40;-6.50;99.90
34147;DHT22;20423;49.448;9.056;2022-12-18T00:49:06;-6.40;99.90
34147;DHT22;20423;49.448;9.056;2022-12-18T00:51:32;-6.40;99.90
34147;DHT22;20423;49.448;9.056;2022-12-18T00:53:58;-6.40;99.90
34147;DHT22;20423;49.448;9.056;2022-12-18T00:56:24;-6.40;99.90
34147;DHT22;20423;49.448;9.056;2022-12-18T00:58:50;-6.30;99.90
34147;DHT22;20423;49.448;9.056;2022-12-18T01:01:16;-6.40;99.90
34147;DHT22;20423;49.448;9.056;2022-12-18T01:03:41;-6.30;99.90
34147;DHT22;20423;49.448;9.056;2022-12-18T01:06:09;-6.40;99.90
34147;DHT22;20423;49.448;9.056;2022-12-18T01:08:35;-6.40;99.90
34147;DHT22;20423;49.448;9.056;2022-12-18T01:11:07;-6.30;99.90
34147;DHT22;20423;49.448;9.056;2022-12-18T01:13:33;-6.30;99.90
34147;DHT22;20423;49.448;9.056;2022-12-18T01:15:59;-6.20;99.90
34147;DHT22;20423;49.448;9.056;2022-12-18T01:18:25;-6.20;99.90
34147;DHT22;20423;49.448;9.056;2022-12-18T01:20:50;-6.30;99.90
34147;DHT22;20423;49.448;9.056;2022-12-18T01:23:16;-6.40;99.90
34147;DHT22;20423;49.448;9.056;2022-12-18T01:25:41;-6.40;99.90
34147;DHT22;20423;49.448;9.056;2022-12-18T01:28:09;-6.40;99.90
34147;DHT22;20423;49.448;9.056;2022-12-18T01:30:35;-6.40;99.90
34147;DHT22;20423;49.448;9.056;2022-12-18T01:33:00;-6.40;99.90
34147;DHT22;20423;49.448;9.056;2022-12-18T01:35:26;-6.40;99.90
34147;DHT22;20423;49.448;9.056;2022-12-18T01:38:08;-6.40;99.90
34147;DHT22;20423;49.448;9.056;2022-12-18T01:40:34;-6.40;99.90
34147;DHT22;20423;49.448;9.056;2022-12-18T01:42:59;-6.50;99.90
34147;DHT22;20423;49.448;9.056;2022-12-18T01:45:28;-6.40;99.90
34147;DHT22;20423;49.448;9.056;2022-12-18T01:50:56;-6.40;99.90
34147;DHT22;20423;49.448;9.056;2022-12-18T01:53:23;-6.50;99.90
34147;DHT22;20423;49.448;9.056;2022-12-18T01:55:57;-6.50;99.90
34147;DHT22;20423;49.448;9.056;2022-12-18T02:01:04;-6.40;99.90
34147;DHT22;20423;49.448;9.056;2022-12-18T02:03:31;-6.40;99.90
34147;DHT22;20423;49.448;9.056;2022-12-18T02:06:12;-6.50;99.90
34147;DHT22;20423;49.448;9.056;2022-12-18T02:09:04;-6.50;99.90
34147;DHT22;20423;49.448;9.056;2022-12-18T02:17:01;-6.50;99.90
34147;DHT22;20423;49.448;9.056;2022-12-18T02:20:14;-6.50;99.90
34147;DHT22;20423;49.448;9.056;2022-12-18T02:28:20;-6.50;99.90
34147;DHT22;20423;49.448;9.056;2022-12-18T02:30:49;-6.50;99.90
34147;DHT22;20423;49.448;9.056;2022-12-18T02:33:17;-6.40;99.90
34147;DHT22;20423;49.448;9.056;2022-12-18T02:35:45;-6.40;99.90
34147;DHT22;20423;49.448;9.056;2022-12-18T02:38:12;-6.40;99.90
34147;DHT22;20423;49.448;9.056;2022-12-18T02:40:41;-6.50;99.90
34147;DHT22;20423;49.448;9.056;2022-12-18T02:43:09;-6.50;99.90
34147;DHT22;20423;49.448;9.056;2022-12-18T02:45:46;-6.60;99.90
34147;DHT22;20423;49.448;9.056;2022-12-18T02:48:13;-6.70;99.90
34147;DHT22;20423;49.448;9.056;2022-12-18T02:50:45;-6.60;99.90
34147;DHT22;20423;49.448;9.056;2022-12-18T02:53:32;-6.60;99.90
34147;DHT22;20423;49.448;9.056;2022-12-18T02:56:05;-6.50;99.90
34147;DHT22;20423;49.448;9.056;2022-12-18T03:03:52;-6.60;99.90
34147;DHT22;20423;49.448;9.056;2022-12-18T03:06:24;-6.60;99.90
34147;DHT22;20423;49.448;9.056;2022-12-18T03:08:58;-6.60;99.90
34147;DHT22;20423;49.448;9.056;2022-12-18T03:11:28;-6.70;99.90
34147;DHT22;20423;49.448;9.056;2022-12-18T03:14:17;-6.70;99.90
34147;DHT22;20423;49.448;9.056;2022-12-18T03:16:47;-6.70;99.90
34147;DHT22;20423;49.448;9.056;2022-12-18T03:19:17;-6.70;99.90
34147;DHT22;20423;49.448;9.056;2022-12-18T03:21:54;-6.80;99.90
34147;DHT22;20423;49.448;9.056;2022-12-18T03:24:24;-6.80;99.90
34147;DHT22;20423;49.448;9.056;2022-12-18T03:26:54;-6.90;99.90
34147;DHT22;20423;49.448;9.056;2022-12-18T03:29:26;-6.90;99.90
34147;DHT22;20423;49.448;9.056;2022-12-18T03:32:10;-6.90;99.90
34147;DHT22;20423;49.448;9.056;2022-12-18T03:34:40;-6.90;99.90
34147;DHT22;20423;49.448;9.056;2022-12-18T03:37:11;-6.90;99.90
34147;DHT22;20423;49.448;9.056;2022-12-18T03:39:37;-6.90;99.90
34147;DHT22;20423;49.448;9.056;2022-12-18T03:42:15;-7.00;99.90
34147;DHT22;20423;49.448;9.056;2022-12-18T03:45:08;-6.90;99.90
34147;DHT22;20423;49.448;9.056;2022-12-18T03:47:52;-6.90;99.90
34147;DHT22;20423;49.448;9.056;2022-12-18T03:53:20;-7.10;99.90
34147;DHT22;20423;49.448;9.056;2022-12-18T03:55:49;-7.20;99.90
34147;DHT22;20423;49.448;9.056;2022-12-18T03:58:19;-7.20;99.90
34147;DHT22;20423;49.448;9.056;2022-12-18T04:00:56;-7.20;99.90
34147;DHT22;20423;49.448;9.056;2022-12-18T04:03:23;-7.20;99.90
34147;DHT22;20423;49.448;9.056;2022-12-18T04:05:51;-7.20;99.90
34147;DHT22;20423;49.448;9.056;2022-12-18T04:08:21;-7.00;99.90
34147;DHT22;20423;49.448;9.056;2022-12-18T04:10:55;-7.00;99.90
34147;DHT22;20423;49.448;9.056;2022-12-18T04:13:28;-6.90;99.90
34147;DHT22;20423;49.448;9.056;2022-12-18T04:15:55;-6.90;99.90
34147;DHT22;20423;49.448;9.056;2022-12-18T04:18:22;-7.00;99.90
34147;DHT22;20423;49.448;9.056;2022-12-18T04:20:48;-7.00;99.90
34147;DHT22;20423;49.448;9.056;2022-12-18T04:23:23;-7.00;99.90
34147;DHT22;20423;49.448;9.056;2022-12-18T04:25:49;-7.00;99.90
34147;DHT22;20423;49.448;9.056;2022-12-18T04:28:25;-7.10;99.90
34147;DHT22;20423;49.448;9.056;2022-12-18T04:30:51;-7.10;99.90
34147;DHT22;20423;49.448;9.056;2022-12-18T04:33:19;-7.10;99.90
34147;DHT22;20423;49.448;9.056;2022-12-18T04:35:45;-7.00;99.90
34147;DHT22;20423;49.448;9.056;2022-12-18T04:38:12;-7.20;99.90
34147;DHT22;20423;49.448;9.056;2022-12-18T04:40:39;-7.20;99.90
34147;DHT22;20423;49.448;9.056;2022-12-18T04:43:11;-7.20;99.90
34147;DHT22;20423;49.448;9.056;2022-12-18T04:45:37;-7.20;99.90
34147;DHT22;20423;49.448;9.056;2022-12-18T04:48:03;-7.20;99.90
34147;DHT22;20423;49.448;9.056;2022-12-18T04:50:29;-7.20;99.90
34147;DHT22;20423;49.448;9.056;2022-12-18T04:52:55;-7.30;99.90
34147;DHT22;20423;49.448;9.056;2022-12-18T04:55:24;-7.30;99.90
34147;DHT22;20423;49.448;9.056;2022-12-18T04:57:50;-7.30;99.90
34147;DHT22;20423;49.448;9.056;2022-12-18T05:00:15;-7.20;99.90
34147;DHT22;20423;49.448;9.056;2022-12-18T05:02:41;-7.20;99.90
34147;DHT22;20423;49.448;9.056;2022-12-18T05:05:07;-7.30;99.90
34147;DHT22;20423;49.448;9.056;2022-12-18T05:07:33;-7.30;99.90
34147;DHT22;20423;49.448;9.056;2022-12-18T05:09:59;-7.30;99.90
34147;DHT22;20423;49.448;9.056;2022-12-18T05:12:25;-7.40;99.90
34147;DHT22;20423;49.448;9.056;2022-12-18T05:14:51;-7.50;99.90
34147;DHT22;20423;49.448;9.056;2022-12-18T05:17:17;-7.50;99.90
34147;DHT22;20423;49.448;9.056;2022-12-18T05:19:42;-7.60;99.90
34147;DHT22;20423;49.448;9.056;2022-12-18T05:22:09;-7.70;99.90
34147;DHT22;20423;49.448;9.056;2022-12-18T05:24:35;-7.70;99.90
34147;DHT22;20423;49.448;9.056;2022-12-18T05:27:01;-7.80;99.90
34147;DHT22;20423;49.448;9.056;2022-12-18T05:29:27;-7.80;99.90
34147;DHT22;20423;49.448;9.056;2022-12-18T05:31:52;-7.90;99.90
34147;DHT22;20423;49.448;9.056;2022-12-18T05:34:18;-7.90;99.90
34147;DHT22;20423;49.448;9.056;2022-12-18T05:36:43;-8.00;99.90
34147;DHT22;20423;49.448;9.056;2022-12-18T05:39:09;-8.00;99.90
34147;DHT22;20423;49.448;9.056;2022-12-18T05:41:35;-8.00;99.90
34147;DHT22;20423;49.448;9.056;2022-12-18T05:44:01;-8.10;99.90
34147;DHT22;20423;49.448;9.056;2022-12-18T05:46:26;-8.10;99.90
34147;DHT22;20423;49.448;9.056;2022-12-18T05:48:52;-8.20;99.90
34147;DHT22;20423;49.448;9.056;2022-12-18T05:51:20;-8.20;99.90
34147;DHT22;20423;49.448;9.056;2022-12-18T05:53:46;-8.20;99.90
34147;DHT22;20423;49.448;9.056;2022-12-18T05:56:18;-8.30;99.90
34147;DHT22;20423;49.448;9.056;2022-12-18T05:58:44;-8.40;99.90
34147;DHT22;20423;49.448;9.056;2022-12-18T06:01:22;-8.40;99.90
34147;DHT22;20423;49.448;9.056;2022-12-18T06:03:48;-8.40;99.90
34147;DHT22;20423;49.448;9.056;2022-12-18T06:06:20;-8.40;99.90
34147;DHT22;20423;49.448;9.056;2022-12-18T06:08:46;-8.40;99.90
34147;DHT22;20423;49.448;9.056;2022-12-18T06:11:12;-8.40;99.90
34147;DHT22;20423;49.448;9.056;2022-12-18T06:13:38;-8.50;99.90
34147;DHT22;20423;49.448;9.056;2022-12-18T06:16:07;-8.60;99.90
34147;DHT22;20423;49.448;9.056;2022-12-18T06:18:33;-8.60;99.90
34147;DHT22;20423;49.448;9.056;2022-12-18T06:21:02;-8.60;99.90
34147;DHT22;20423;49.448;9.056;2022-12-18T06:23:28;-8.50;99.90
34147;DHT22;20423;49.448;9.056;2022-12-18T06:25:53;-8.70;99.90
34147;DHT22;20423;49.448;9.056;2022-12-18T06:28:19;-8.70;99.90
34147;DHT22;20423;49.448;9.056;2022-12-18T06:30:46;-8.70;99.90
34147;DHT22;20423;49.448;9.056;2022-12-18T06:33:12;-8.70;99.90
34147;DHT22;20423;49.448;9.056;2022-12-18T06:35:38;-8.70;99.90
34147;DHT22;20423;49.448;9.056;2022-12-18T06:38:04;-8.70;99.90
34147;DHT22;20423;49.448;9.056;2022-12-18T06:40:29;-8.70;99.90
34147;DHT22;20423;49.448;9.056;2022-12-18T06:42:55;-8.70;99.90
34147;DHT22;20423;49.448;9.056;2022-12-18T06:45:21;-8.80;99.90
34147;DHT22;20423;49.448;9.056;2022-12-18T06:47:47;-8.90;99.90
34147;DHT22;20423;49.448;9.056;2022-12-18T06:50:13;-9.00;99.90
34147;DHT22;20423;49.448;9.056;2022-12-18T06:52:39;-9.00;99.90
34147;DHT22;20423;49.448;9.056;2022-12-18T06:55:09;-9.00;99.90
34147;DHT22;20423;49.448;9.056;2022-12-18T06:57:35;-9.00;99.90
34147;DHT22;20423;49.448;9.056;2022-12-18T07:00:02;-9.00;99.90
34147;DHT22;20423;49.448;9.056;2022-12-18T07:02:28;-9.00;99.90
34147;DHT22;20423;49.448;9.056;2022-12-18T07:04:54;-9.00;99.90
34147;DHT22;20423;49.448;9.056;2022-12-18T07:07:19;-9.00;99.90
34147;DHT22;20423;49.448;9.056;2022-12-18T07:09:45;-9.00;99.90
34147;DHT22;20423;49.448;9.056;2022-12-18T07:12:11;-9.10;99.90
34147;DHT22;20423;49.448;9.056;2022-12-18T07:14:37;-9.10;99.90
34147;DHT22;20423;49.448;9.056;2022-12-18T07:17:02;-9.20;99.90
34147;DHT22;20423;49.448;9.056;2022-12-18T07:19:29;-9.20;99.90
34147;DHT22;20423;49.448;9.056;2022-12-18T07:21:55;-9.20;99.90
34147;DHT22;20423;49.448;9.056;2022-12-18T07:24:42;-9.20;99.90
34147;DHT22;20423;49.448;9.056;2022-12-18T07:27:08;-9.20;99.90
34147;DHT22;20423;49.448;9.056;2022-12-18T07:29:34;-9.20;99.90
34147;DHT22;20423;49.448;9.056;2022-12-18T07:31:59;-9.30;99.90
34147;DHT22;20423;49.448;9.056;2022-12-18T07:34:25;-9.30;99.90
34147;DHT22;20423;49.448;9.056;2022-12-18T07:36:51;-9.30;99.90
34147;DHT22;20423;49.448;9.056;2022-12-18T07:39:17;-9.30;99.90
34147;DHT22;20423;49.448;9.056;2022-12-18T07:41:42;-9.20;99.90
34147;DHT22;20423;49.448;9.056;2022-12-18T07:44:12;-9.30;99.90
34147;DHT22;20423;49.448;9.056;2022-12-18T07:46:37;-9.30;99.90
34147;DHT22;20423;49.448;9.056;2022-12-18T07:49:03;-9.30;99.90
34147;DHT22;20423;49.448;9.056;2022-12-18T07:51:29;-9.20;99.90
34147;DHT22;20423;49.448;9.056;2022-12-18T07:53:54;-9.20;99.90
34147;DHT22;20423;49.448;9.056;2022-12-18T07:56:20;-9.20;99.90
34147;DHT22;20423;49.448;9.056;2022-12-18T07:58:46;-9.20;99.90
34147;DHT22;20423;49.448;9.056;2022-12-18T08:01:12;-9.30;99.90
34147;DHT22;20423;49.448;9.056;2022-12-18T08:03:39;-9.30;99.90
34147;DHT22;20423;49.448;9.056;2022-12-18T08:06:07;-9.30;99.90
34147;DHT22;20423;49.448;9.056;2022-12-18T08:08:34;-9.20;99.90
34147;DHT22;20423;49.448;9.056;2022-12-18T08:11:01;-9.20;99.90
34147;DHT22;20423;49.448;9.056;2022-12-18T08:13:36;-9.30;99.90
34147;DHT22;20423;49.448;9.056;2022-12-18T08:16:05;-9.30;99.90
34147;DHT22;20423;49.448;9.056;2022-12-18T08:18:36;-9.20;99.90
34147;DHT22;20423;49.448;9.056;2022-12-18T08:21:20;-9.20;99.90
34147;DHT22;20423;49.448;9.056;2022-12-18T08:23:48;-9.10;99.90
34147;DHT22;20423;49.448;9.056;2022-12-18T08:26:14;-9.10;99.90
34147;DHT22;20423;49.448;9.056;2022-12-18T08:28:40;-9.20;99.90
34147;DHT22;20423;49.448;9.056;2022-12-18T08:31:07;-9.10;99.90
34147;DHT22;20423;49.448;9.056;2022-12-18T08:33:33;-9.10;99.90
34147;DHT22;20423;49.448;9.056;2022-12-18T08:36:00;-9.00;99.90
34147;DHT22;20423;49.448;9.056;2022-12-18T08:38:26;-9.10;99.90
34147;DHT22;20423;49.448;9.056;2022-12-18T08:41:04;-9.10;99.90
34147;DHT22;20423;49.448;9.056;2022-12-18T08:43:30;-9.10;99.90
34147;DHT22;20423;49.448;9.056;2022-12-18T08:46:18;-9.10;99.90
34147;DHT22;20423;49.448;9.056;2022-12-18T08:48:44;-9.00;99.90
34147;DHT22;20423;49.448;9.056;2022-12-18T08:51:10;-8.90;99.90
34147;DHT22;20423;49.448;9.056;2022-12-18T08:53:36;-8.90;99.90
34147;DHT22;20423;49.448;9.056;2022-12-18T08:56:05;-8.90;99.90
34147;DHT22;20423;49.448;9.056;2022-12-18T08:58:31;-8.90;99.90
34147;DHT22;20423;49.448;9.056;2022-12-18T09:01:01;-8.80;99.90
34147;DHT22;20423;49.448;9.056;2022-12-18T09:03:27;-8.70;99.90
34147;DHT22;20423;49.448;9.056;2022-12-18T09:05:53;-8.70;99.90
34147;DHT22;20423;49.448;9.056;2022-12-18T09:08:18;-8.70;99.90
34147;DHT22;20423;49.448;9.056;2022-12-18T09:10:45;-8.60;99.90
34147;DHT22;20423;49.448;9.056;2022-12-18T09:13:12;-8.50;99.90
34147;DHT22;20423;49.448;9.056;2022-12-18T09:15:50;-8.50;99.90
34147;DHT22;20423;49.448;9.056;2022-12-18T09:18:17;-8.40;99.90
34147;DHT22;20423;49.448;9.056;2022-12-18T09:20:43;-8.40;99.90
34147;DHT22;20423;49.448;9.056;2022-12-18T09:23:09;-8.30;99.90
34147;DHT22;20423;49.448;9.056;2022-12-18T09:25:35;-8.20;99.90
34147;DHT22;20423;49.448;9.056;2022-12-18T09:28:03;-8.10;99.90
34147;DHT22;20423;49.448;9.056;2022-12-18T09:30:29;-8.00;99.90
34147;DHT22;20423;49.448;9.056;2022-12-18T09:32:55;-8.00;99.90
34147;DHT22;20423;49.448;9.056;2022-12-18T09:35:49;-7.90;99.90
34147;DHT22;20423;49.448;9.056;2022-12-18T09:38:17;-7.80;99.90
34147;DHT22;20423;49.448;9.056;2022-12-18T09:40:51;-7.70;99.90
34147;DHT22;20423;49.448;9.056;2022-12-18T09:43:54;-7.70;99.90
34147;DHT22;20423;49.448;9.056;2022-12-18T09:46:45;-7.30;99.90
34147;DHT22;20423;49.448;9.056;2022-12-18T09:49:15;-7.30;99.90
34147;DHT22;20423;49.448;9.056;2022-12-18T09:51:49;-7.20;99.90
34147;DHT22;20423;49.448;9.056;2022-12-18T09:54:26;-7.10;99.90
34147;DHT22;20423;49.448;9.056;2022-12-18T09:56:55;-7.00;99.90
34147;DHT22;20423;49.448;9.056;2022-12-18T09:59:25;-6.90;99.90
34147;DHT22;20423;49.448;9.056;2022-12-18T10:01:52;-6.70;99.90
34147;DHT22;20423;49.448;9.056;2022-12-18T10:04:18;-6.70;99.90
34147;DHT22;20423;49.448;9.056;2022-12-18T10:07:06;-6.60;99.90
34147;DHT22;20423;49.448;9.056;2022-12-18T10:09:40;-6.50;99.90
34147;DHT22;20423;49.448;9.056;2022-12-18T10:17:20;-5.90;99.90
34147;DHT22;20423;49.448;9.056;2022-12-18T10:19:50;-6.10;99.90
34147;DHT22;20423;49.448;9.056;2022-12-18T10:22:38;-6.30;99.90
34147;DHT22;20423;49.448;9.056;2022-12-18T10:27:55;-6.00;99.90
34147;DHT22;20423;49.448;9.056;2022-12-18T10:30:22;-5.90;99.90
34147;DHT22;20423;49.448;9.056;2022-12-18T10:32:48;-6.00;99.90
34147;DHT22;20423;49.448;9.056;2022-12-18T10:35:25;-6.00;99.90
34147;DHT22;20423;49.448;9.056;2022-12-18T10:40:47;-6.00;99.90
34147;DHT22;20423;49.448;9.056;2022-12-18T10:43:14;-6.00;99.90
34147;DHT22;20423;49.448;9.056;2022-12-18T10:45:42;-6.00;99.90
34147;DHT22;20423;49.448;9.056;2022-12-18T10:48:19;-5.80;99.90
34147;DHT22;20423;49.448;9.056;2022-12-18T10:50:48;-5.70;99.90
34147;DHT22;20423;49.448;9.056;2022-12-18T10:53:20;-5.70;99.90
34147;DHT22;20423;49.448;9.056;2022-12-18T10:55:47;-5.70;99.90
34147;DHT22;20423;49.448;9.056;2022-12-18T10:58:35;-5.70;99.90
34147;DHT22;20423;49.448;9.056;2022-12-18T11:01:17;-5.80;99.90
34147;DHT22;20423;49.448;9.056;2022-12-18T11:06:23;-5.50;99.90
34147;DHT22;20423;49.448;9.056;2022-12-18T11:09:22;-5.70;99.90
34147;DHT22;20423;49.448;9.056;2022-12-18T11:11:52;-5.70;99.90
34147;DHT22;20423;49.448;9.056;2022-12-18T11:14:29;-5.70;99.90
34147;DHT22;20423;49.448;9.056;2022-12-18T11:16:58;-5.60;99.90
34147;DHT22;20423;49.448;9.056;2022-12-18T11:21:56;-5.40;99.90
34147;DHT22;20423;49.448;9.056;2022-12-18T11:24:28;-5.40;99.90
34147;DHT22;20423;49.448;9.056;2022-12-18T11:26:59;-5.50;99.90
34147;DHT22;20423;49.448;9.056;2022-12-18T11:29:36;-5.50;99.90
34147;DHT22;20423;49.448;9.056;2022-12-18T11:32:29;-5.60;99.90
34147;DHT22;20423;49.448;9.056;2022-12-18T11:35:03;-5.50;99.90
34147;DHT22;20423;49.448;9.056;2022-12-18T11:37:32;-5.30;99.90
34147;DHT22;20423;49.448;9.056;2022-12-18T11:40:03;-5.30;99.90
34147;DHT22;20423;49.448;9.056;2022-12-18T11:42:58;-5.40;99.90
34147;DHT22;20423;49.448;9.056;2022-12-18T11:45:47;-5.50;99.90
34147;DHT22;20423;49.448;9.056;2022-12-18T11:50:55;-5.40;99.90
34147;DHT22;20423;49.448;9.056;2022-12-18T11:53:22;-5.40;99.90
34147;DHT22;20423;49.448;9.056;2022-12-18T11:58:51;-5.30;99.90
34147;DHT22;20423;49.448;9.056;2022-12-18T12:01:39;-5.40;99.90
34147;DHT22;20423;49.448;9.056;2022-12-18T12:04:37;-5.30;99.90
34147;DHT22;20423;49.448;9.056;2022-12-18T12:07:12;-5.20;99.90
34147;DHT22;20423;49.448;9.056;2022-12-18T12:12:58;-5.20;99.90
34147;DHT22;20423;49.448;9.056;2022-12-18T12:16:04;-5.10;99.90
34147;DHT22;20423;49.448;9.056;2022-12-18T12:18:56;-5.10;99.90
34147;DHT22;20423;49.448;9.056;2022-12-18T12:21:34;-5.00;99.90
34147;DHT22;20423;49.448;9.056;2022-12-18T12:30:07;-5.10;99.90
34147;DHT22;20423;49.448;9.056;2022-12-18T12:38:13;-5.00;99.90
34147;DHT22;20423;49.448;9.056;2022-12-18T12:40:44;-4.90;99.90
34147;DHT22;20423;49.448;9.056;2022-12-18T12:43:22;-4.70;99.90
34147;DHT22;20423;49.448;9.056;2022-12-18T12:46:09;-4.70;99.90
34147;DHT22;20423;49.448;9.056;2022-12-18T12:48:51;-4.50;99.90
34147;DHT22;20423;49.448;9.056;2022-12-18T12:51:30;-4.40;99.90
34147;DHT22;20423;49.448;9.056;2022-12-18T12:53:58;-4.40;99.90
34147;DHT22;20423;49.448;9.056;2022-12-18T12:59:28;-4.40;99.90
34147;DHT22;20423;49.448;9.056;2022-12-18T13:02:14;-4.40;99.90
34147;DHT22;20423;49.448;9.056;2022-12-18T13:04:47;-4.40;99.90
34147;DHT22;20423;49.448;9.056;2022-12-18T13:07:35;-4.40;99.90
34147;DHT22;20423;49.448;9.056;2022-12-18T13:12:52;-4.50;99.90
34147;DHT22;20423;49.448;9.056;2022-12-18T13:25:58;-4.60;99.90
34147;DHT22;20423;49.448;9.056;2022-12-18T13:34:25;-4.70;99.90
34147;DHT22;20423;49.448;9.056;2022-12-18T13:36:52;-4.70;99.90
34147;DHT22;20423;49.448;9.056;2022-12-18T13:41:44;-4.60;99.90
34147;DHT22;20423;49.448;9.056;2022-12-18T13:46:47;-4.60;99.90
34147;DHT22;20423;49.448;9.056;2022-12-18T13:51:44;-4.70;99.90
34147;DHT22;20423;49.448;9.056;2022-12-18T13:57:39;-4.70;99.90
34147;DHT22;20423;49.448;9.056;2022-12-18T14:00:32;-4.80;99.90
34147;DHT22;20423;49.448;9.056;2022-12-18T14:02:59;-4.80;99.90
34147;DHT22;20423;49.448;9.056;2022-12-18T14:05:30;-4.80;99.90
34147;DHT22;20423;49.448;9.056;2022-12-18T14:08:11;-4.80;99.90
34147;DHT22;20423;49.448;9.056;2022-12-18T14:10:45;-4.90;99.90
34147;DHT22;20423;49.448;9.056;2022-12-18T14:13:21;-4.90;99.90
34147;DHT22;20423;49.448;9.056;2022-12-18T14:15:49;-4.90;99.90
34147;DHT22;20423;49.448;9.056;2022-12-18T14:20:57;-4.90;99.90
34147;DHT22;20423;49.448;9.056;2022-12-18T14:26:40;-5.00;99.90
34147;DHT22;20423;49.448;9.056;2022-12-18T14:29:22;-5.00;99.90
34147;DHT22;20423;49.448;9.056;2022-12-18T14:32:12;-5.10;99.90
34147;DHT22;20423;49.448;9.056;2022-12-18T14:34:39;-5.10;99.90
34147;DHT22;20423;49.448;9.056;2022-12-18T14:37:09;-5.10;99.90
34147;DHT22;20423;49.448;9.056;2022-12-18T14:39:35;-5.20;99.90
34147;DHT22;20423;49.448;9.056;2022-12-18T14:42:01;-5.20;99.90
34147;DHT22;20423;49.448;9.056;2022-12-18T14:44:26;-5.20;99.90
34147;DHT22;20423;49.448;9.056;2022-12-18T14:46:52;-5.20;99.90
34147;DHT22;20423;49.448;9.056;2022-12-18T14:49:26;-5.30;99.90
34147;DHT22;20423;49.448;9.056;2022-12-18T14:52:06;-5.30;99.90
34147;DHT22;20423;49.448;9.056;2022-12-18T14:54:38;-5.30;99.90
34147;DHT22;20423;49.448;9.056;2022-12-18T14:57:25;-5.30;99.90
34147;DHT22;20423;49.448;9.056;2022-12-18T14:59:52;-5.40;99.90
34147;DHT22;20423;49.448;9.056;2022-12-18T15:02:27;-5.40;99.90
34147;DHT22;20423;49.448;9.056;2022-12-18T15:08:02;-5.50;99.90
34147;DHT22;20423;49.448;9.056;2022-12-18T15:10:30;-5.50;99.90
34147;DHT22;20423;49.448;9.056;2022-12-18T15:21:06;-5.60;99.90
34147;DHT22;20423;49.448;9.056;2022-12-18T15:23:52;-5.70;99.90
34147;DHT22;20423;49.448;9.056;2022-12-18T15:26:20;-5.70;99.90
34147;DHT22;20423;49.448;9.056;2022-12-18T15:34:05;-5.60;99.90
34147;DHT22;20423;49.448;9.056;2022-12-18T15:36:34;-5.70;99.90
34147;DHT22;20423;49.448;9.056;2022-12-18T15:39:02;-5.70;99.90
34147;DHT22;20423;49.448;9.056;2022-12-18T15:41:31;-5.70;99.90
34147;DHT22;20423;49.448;9.056;2022-12-18T15:43:59;-5.80;99.90
34147;DHT22;20423;49.448;9.056;2022-12-18T15:46:25;-5.70;99.90
34147;DHT22;20423;49.448;9.056;2022-12-18T15:48:58;-5.70;99.90
34147;DHT22;20423;49.448;9.056;2022-12-18T15:51:35;-5.70;99.90
34147;DHT22;20423;49.448;9.056;2022-12-18T15:54:04;-5.70;99.90
34147;DHT22;20423;49.448;9.056;2022-12-18T15:56:30;-5.70;99.90
34147;DHT22;20423;49.448;9.056;2022-12-18T15:59:16;-5.80;99.90
34147;DHT22;20423;49.448;9.056;2022-12-18T16:01:52;-5.80;99.90
34147;DHT22;20423;49.448;9.056;2022-12-18T16:04:21;-5.80;99.90
34147;DHT22;20423;49.448;9.056;2022-12-18T16:06:48;-5.80;99.90
34147;DHT22;20423;49.448;9.056;2022-12-18T16:09:14;-5.80;99.90
34147;DHT22;20423;49.448;9.056;2022-12-18T16:11:42;-5.80;99.90
34147;DHT22;20423;49.448;9.056;2022-12-18T16:14:19;-5.90;99.90
34147;DHT22;20423;49.448;9.056;2022-12-18T16:16:47;-5.80;99.90
34147;DHT22;20423;49.448;9.056;2022-12-18T16:19:13;-5.80;99.90
34147;DHT22;20423;49.448;9.056;2022-12-18T16:21:39;-5.80;99.90
34147;DHT22;20423;49.448;9.056;2022-12-18T16:24:09;-5.80;99.90
34147;DHT22;20423;49.448;9.056;2022-12-18T16:26:37;-5.80;99.90
34147;DHT22;20423;49.448;9.056;2022-12-18T16:29:02;-5.70;99.90
34147;DHT22;20423;49.448;9.056;2022-12-18T16:31:28;-5.70;99.90
34147;DHT22;20423;49.448;9.056;2022-12-18T16:34:33;-5.70;99.90
34147;DHT22;20423;49.448;9.056;2022-12-18T16:37:05;-5.60;99.90
34147;DHT22;20423;49.448;9.056;2022-12-18T16:39:30;-5.60;99.90
34147;DHT22;20423;49.448;9.056;2022-12-18T16:41:57;-5.60;99.90
34147;DHT22;20423;49.448;9.056;2022-12-18T16:44:23;-5.60;99.90
34147;DHT22;20423;49.448;9.056;2022-12-18T16:46:49;-5.50;99.90
34147;DHT22;20423;49.448;9.056;2022-12-18T16:49:16;-5.50;99.90
34147;DHT22;20423;49.448;9.056;2022-12-18T16:51:42;-5.60;99.90
34147;DHT22;20423;49.448;9.056;2022-12-18T16:54:08;-5.60;99.90
34147;DHT22;20423;49.448;9.056;2022-12-18T16:56:33;-5.50;99.90
34147;DHT22;20423;49.448;9.056;2022-12-18T16:59:00;-5.50;99.90
34147;DHT22;20423;49.448;9.056;2022-12-18T17:01:28;-5.50;99.90
34147;DHT22;20423;49.448;9.056;2022-12-18T17:03:59;-5.50;99.90
34147;DHT22;20423;49.448;9.056;2022-12-18T17:06:27;-5.60;99.90
34147;DHT22;20423;49.448;9.056;2022-12-18T17:09:04;-5.60;99.90
34147;DHT22;20423;49.448;9.056;2022-12-18T17:11:32;-5.60;99.90
34147;DHT22;20423;49.448;9.056;2022-12-18T17:13:58;-5.60;99.90
34147;DHT22;20423;49.448;9.056;2022-12-18T17:16:25;-5.60;99.90
34147;DHT22;20423;49.448;9.056;2022-12-18T17:18:54;-5.60;99.90
34147;DHT22;20423;49.448;9.056;2022-12-18T17:21:19;-5.60;99.90
34147;DHT22;20423;49.448;9.056;2022-12-18T17:23:45;-5.60;99.90
34147;DHT22;20423;49.448;9.056;2022-12-18T17:26:12;-5.60;99.90
34147;DHT22;20423;49.448;9.056;2022-12-18T17:28:39;-5.60;99.90
34147;DHT22;20423;49.448;9.056;2022-12-18T17:31:18;-5.60;99.90
34147;DHT22;20423;49.448;9.056;2022-12-18T17:33:45;-5.60;99.90
34147;DHT22;20423;49.448;9.056;2022-12-18T17:36:11;-5.60;99.90
34147;DHT22;20423;49.448;9.056;2022-12-18T17:38:37;-5.60;99.90
34147;DHT22;20423;49.448;9.056;2022-12-18T17:41:05;-5.60;99.90
34147;DHT22;20423;49.448;9.056;2022-12-18T17:43:32;-5.60;99.90
34147;DHT22;20423;49.448;9.056;2022-12-18T17:46:04;-5.70;99.90
34147;DHT22;20423;49.448;9.056;2022-12-18T17:48:31;-5.70;99.90